Adrian, Washington
Current Conditions -  °F | °C
As of 12:53 PM on Tuesday 21 Oct 2014 (Local Time) from KEPH Reporting Station
Clear Clear  
Wind Chill: 60°   Ceiling: Unl
Heat Index: 60°   Visibility: 10mi
Dew Point: 48°   Wind: 6mph
Humidity: 64%   Direction: 160°SSE
Pressure: 29.89"   Gusts: NA
Location:  47.4314°N, 119.485°W
Report Text: KEPH 211953Z AUTO 16005KT 10SM CLR 16/09 A2989 RMK AO2 SLP124 T01560089
Loading
Personal Weather Stations






























Interactive Weather Map
Tropical Storm Tracking
New forecast layout! Learn more

10-Day Weather Forecast

Advertisements
Track Severe Weather on mobile